Flight Track Log - Related Links

Times and Time Zones

All times are in EDT time to prevent confusion due to time zone crossing. See the SWA1798 flight status page for this flight to view local times or setup timezone preferences in your user account.


Time Position Orientation Groundspeed Altitude Reporting Facility
EDT Latitude Longitude Course Direction KTS MPH feet Rate Location/Type
Sat 01:04:38 PM 36.0767 -115.1706 269° West 160 184 3,400  Level Los Angeles Center
Sat 01:05:27 PM 36.0758 -115.2267 269° West 215 247 4,700 1,515 Climbing Los Angeles Center
Sat 01:06:21 PM 36.0442 -115.2678 226° Southwest 255 293 6,000 1,190 Climbing Los Angeles Center
Sat 01:07:23 PM 35.9569 -115.2969 195° South 273 314 7,000 1,742 Climbing Los Angeles Center
Sat 01:08:25 PM 35.8819 -115.2647 161° South 280 322 9,600 1,548 Climbing Los Angeles Center
Sat 01:09:27 PM 35.8431 -115.1669 116° Southeast 324 373 10,200 2,049 Climbing Los Angeles Center
Sat 01:10:28 PM 35.8219 -115.0556 103° East 337 388 13,800 2,244 Climbing Los Angeles Center
Sat 01:11:30 PM 35.8333 -114.9328 83° East 361 415 14,800 1,742 Climbing Los Angeles Center
Sat 01:12:32 PM 35.8469 -114.7964 83° East 396 456 17,400 2,419 Climbing Los Angeles Center
Sat 01:13:34 PM 35.8603 -114.6303 84° East 405 466 19,800 2,081 Climbing Los Angeles Center
Sat 01:14:36 PM 35.8742 -114.4839 83° East 426 490 21,700 1,742 Climbing Los Angeles Center
Sat 01:15:38 PM 35.8864 -114.3333 84° East 439 505 23,400 1,632 Climbing Los Angeles Center
Sat 01:16:41 PM 35.9000 -114.1781 84° East 452 520 25,100 1,536 Climbing Los Angeles Center
Sat 01:17:43 PM 35.9125 -114.0208 84° East 460 529 26,600 1,355 Climbing Los Angeles Center
Sat 01:18:45 PM 35.9183 -113.8583 87° East 471 542 27,900 1,306 Climbing Los Angeles Center
Sat 01:19:47 PM 35.8850 -113.6597 102° East 490 564 29,300 1,306 Climbing Los Angeles Center
Sat 01:20:49 PM 35.8575 -113.4900 101° East 495 570 30,600 1,355 Climbing Los Angeles Center
Sat 01:21:51 PM 35.8311 -113.3233 101° East 495 570 32,100 1,306 Climbing Los Angeles Center
Sat 01:22:53 PM 35.8050 -113.1583 101° East 492 566 33,300 1,016 Climbing Los Angeles Center
Sat 01:23:55 PM 35.7783 -112.9944 101° East 488 562 34,200 823 Climbing Los Angeles Center
Sat 01:24:57 PM 35.7517 -112.8294 101° East 488 562 35,000 387 Climbing Los Angeles Center
Sat 01:25:59 PM 35.7239 -112.6631 102° East 493 567 35,000  Level Los Angeles Center
Sat 01:27:01 PM 35.6967 -112.4983 101° East 490 564 35,000  Level Los Angeles Center
Sat 01:28:04 PM 35.6622 -112.3011 102° East 491 565 35,000  Level Los Angeles Center
Sat 01:29:06 PM 35.6344 -112.1383 102° East 487 560 35,000  Level Los Angeles Center
Sat 01:30:01 PM 35.6111 -112.0081 102° East 490 564 35,000  Level Albuquerque Center
Sat 01:31:03 PM 35.5883 -111.8122 98° East 484 557 35,000  Level Albuquerque Center
Sat 01:32:05 PM 35.5850 -111.6511 91° East 476 548 35,000  Level Albuquerque Center
Sat 01:33:07 PM 35.5739 -111.4881 95° East 478 550 35,000  Level Albuquerque Center
Sat 01:34:09 PM 35.5558 -111.3008 97° East 483 556 35,000  Level Albuquerque Center
Sat 01:35:11 PM 35.5428 -111.1422 96° East 487 560 35,000  Level Albuquerque Center
Sat 01:36:14 PM 35.5242 -110.9561 97° East 491 565 35,000  Level Albuquerque Center
Sat 01:37:15 PM 35.5106 -110.7969 96° East 492 566 35,000  Level Albuquerque Center
Sat 01:38:17 PM 35.4958 -110.6381 96° East 491 565 35,000  Level Albuquerque Center
Sat 01:39:19 PM 35.4769 -110.4525 97° East 490 564 35,000  Level Albuquerque Center
Sat 01:40:21 PM 35.4633 -110.2947 96° East 489 563 35,000  Level Albuquerque Center
Sat 01:41:23 PM 35.4456 -110.1092 97° East 490 564 35,000  Level Albuquerque Center
Sat 01:42:25 PM 35.4289 -109.9508 97° East 490 564 35,000  Level Albuquerque Center
Sat 01:43:27 PM 35.4114 -109.7678 97° East 488 562 35,000  Level Albuquerque Center
Sat 01:44:29 PM 35.3961 -109.6117 97° East 486 559 35,000  Level Albuquerque Center
Sat 01:45:31 PM 35.3756 -109.4283 98° East 488 562 35,000  Level Albuquerque Center
Sat 01:46:33 PM 35.3600 -109.2728 97° East 486 559 35,000  Level Albuquerque Center
Sat 01:47:36 PM 35.3403 -109.0928 98° East 481 554 35,000  Level Albuquerque Center
Sat 01:48:38 PM 35.3236 -108.9369 97° East 483 556 35,000  Level Albuquerque Center
Sat 01:49:40 PM 35.3036 -108.7556 98° East 484 557 35,000  Level Albuquerque Center
Sat 01:50:41 PM 35.2869 -108.6017 98° East 481 554 35,000  Level Albuquerque Center
Sat 01:51:43 PM 35.2658 -108.4222 98° East 480 552 35,000  Level Albuquerque Center
Sat 01:52:45 PM 35.2500 -108.2686 97° East 477 549 35,000  Level Albuquerque Center
Sat 01:53:47 PM 35.2294 -108.0886 98° East 478 550 35,000  Level Albuquerque Center
Sat 01:54:49 PM 35.2100 -107.9356 99° East 479 551 35,000  Level Albuquerque Center
Sat 01:55:51 PM 35.1897 -107.7567 98° East 478 550 35,000  Level Albuquerque Center
Sat 01:56:53 PM 35.1694 -107.6022 99° East 479 551 35,000  Level Albuquerque Center
Sat 01:57:55 PM 35.1481 -107.4247 98° East 477 549 35,000  Level Albuquerque Center
Sat 01:58:57 PM 35.1189 -107.2661 103° East 484 557 35,000  Level Albuquerque Center
Sat 01:59:59 PM 35.0747 -107.0942 107° East 492 566 35,000  Level Albuquerque Center
Sat 02:01:01 PM 34.9875 -106.9697 131° Southeast 501 577 35,000  Level Albuquerque Center
Sat 02:02:03 PM 34.8606 -106.8531 143° Southeast 509 586 35,000  Level Albuquerque Center
Sat 02:03:05 PM 34.7442 -106.7503 144° Southeast 521 600 35,000  Level Albuquerque Center
Sat 02:04:07 PM 34.6383 -106.6392 139° Southeast 511 588 35,000  Level Albuquerque Center
Sat 02:05:09 PM 34.5400 -106.5189 135° Southeast 504 580 35,000  Level Albuquerque Center
Sat 02:06:11 PM 34.4656 -106.3811 123° Southeast 496 571 35,000  Level Albuquerque Center
Sat 02:07:13 PM 34.4264 -106.2114 106° East 480 552 35,000  Level Albuquerque Center
Sat 02:08:14 PM 34.3956 -106.0556 103° East 473 544 35,000  Level Albuquerque Center
Sat 02:09:16 PM 34.3636 -105.9008 104° East 472 543 35,000  Level Albuquerque Center
Sat 02:10:18 PM 34.3306 -105.7469 105° East 471 542 35,000  Level Albuquerque Center
Sat 02:11:20 PM 34.2933 -105.5686 104° East 467 537 35,000  Level Albuquerque Center
Sat 02:12:22 PM 34.2619 -105.4192 104° East 460 529 35,000  Level Albuquerque Center
Sat 02:13:24 PM 34.2311 -105.2722 104° East 453 521 35,000  Level Albuquerque Center
Sat 02:14:26 PM 34.1992 -105.1244 105° East 452 520 35,000  Level Albuquerque Center
Sat 02:15:28 PM 34.1678 -104.9744 104° East 455 524 35,000  Level Albuquerque Center
Sat 02:16:29 PM 34.1342 -104.8200 105° East 465 535 35,000  Level Albuquerque Center
Sat 02:17:31 PM 34.1000 -104.6692 105° East 465 535 35,000  Level Albuquerque Center
Sat 02:18:33 PM 34.0667 -104.5197 105° East 460 529 35,000  Level Albuquerque Center
Sat 02:19:35 PM 34.0278 -104.3447 105° East 461 531 35,000  Level Albuquerque Center
Sat 02:20:37 PM 33.9933 -104.1936 105° East 462 532 35,000  Level Albuquerque Center
Sat 02:21:38 PM 33.9600 -104.0428 105° East 463 533 35,000  Level Albuquerque Center
Sat 02:22:40 PM 33.9233 -103.8808 105° East 466 536 35,000  Level Albuquerque Center
Sat 02:23:42 PM 33.8894 -103.7286 105° East 469 540 35,000  Level Albuquerque Center
Sat 02:24:44 PM 33.8592 -103.5914 105° East 471 542 35,000 537 Level Albuquerque Center
Sat 02:25:45 PM 33.8247 -103.4369 105° East 476 548 36,100 878 Climbing Albuquerque Center
Sat 02:26:47 PM 33.7819 -103.2547 106° East 475 547 36,800 435 Climbing Albuquerque Center
Sat 02:27:49 PM 33.7453 -103.1031 106° East 473 544 37,000 98 Climbing Albuquerque Center
Sat 02:28:50 PM 33.7086 -102.9508 106° East 474 545 37,000  Level Albuquerque Center
Sat 02:29:52 PM 33.6733 -102.7997 106° East 472 543 37,000  Level Albuquerque Center
Sat 02:30:54 PM 33.6367 -102.6475 106° East 473 544 37,000  Level Albuquerque Center
Sat 02:31:56 PM 33.6006 -102.4956 106° East 464 534 37,000  Level Fort Worth Center
Sat 02:32:56 PM 33.5592 -102.3314 107° East 469 540 37,000  Level Fort Worth Center
Sat 02:33:56 PM 33.5267 -102.1975 106° East 469 540 37,000  Level Fort Worth Center
Sat 02:34:56 PM 33.4869 -102.0358 106° East 464 534 37,000  Level Fort Worth Center
Sat 02:35:56 PM 33.4542 -101.9022 106° East 472 543 37,000  Level Fort Worth Center
Sat 02:36:56 PM 33.4122 -101.7333 107° East 465 535 37,000  Level Fort Worth Center
Sat 02:37:56 PM 33.3833 -101.5978 104° East 465 535 37,000  Level Fort Worth Center
Sat 02:38:56 PM 33.3406 -101.4389 108° East 465 535 37,000  Level Fort Worth Center
Sat 02:39:56 PM 33.3075 -101.3008 106° East 472 543 37,000  Level Fort Worth Center
Sat 02:40:56 PM 33.2686 -101.1375 106° East 467 537 37,000  Level Fort Worth Center
Sat 02:41:56 PM 33.2289 -100.9894 108° East 467 537 37,000  Level Fort Worth Center
Sat 02:42:56 PM 33.1894 -100.8389 107° East 467 537 37,000  Level Fort Worth Center
Sat 02:43:56 PM 33.1517 -100.6886 107° East 467 537 37,000  Level Fort Worth Center
Sat 02:44:56 PM 33.1117 -100.5383 108° East 467 537 37,000  Level Fort Worth Center
Sat 02:45:56 PM 33.0717 -100.3833 107° East 473 544 37,000  Level Fort Worth Center
Sat 02:46:56 PM 33.0333 -100.2283 106° East 478 550 37,000  Level Fort Worth Center
Sat 02:47:56 PM 32.9928 -100.0761 108° East 483 556 37,000  Level Fort Worth Center
Sat 02:48:56 PM 32.9522 -99.9211 107° East 483 556 37,000  Level Fort Worth Center
Sat 02:49:56 PM 32.9153 -99.7842 108° East 483 556 37,000  Level Fort Worth Center
Sat 02:50:56 PM 32.8764 -99.6297 107° East 483 556 37,000  Level Fort Worth Center
Sat 02:51:56 PM 32.8350 -99.4778 108° East 483 556 37,000  Level Fort Worth Center
Sat 02:52:56 PM 32.7917 -99.3236 108° East 483 556 37,000  Level Fort Worth Center
Sat 02:53:56 PM 32.7500 -99.1722 108° East 483 556 37,000  Level Fort Worth Center
Sat 02:54:56 PM 32.7103 -99.0208 107° East 483 556 37,000  Level Fort Worth Center
Sat 02:55:56 PM 32.6661 -98.8669 109° East 483 556 37,000  Level Fort Worth Center
Sat 02:56:56 PM 32.6261 -98.7108 107° East 483 556 37,000  Level Fort Worth Center
Sat 02:57:56 PM 32.5817 -98.5597 109° East 483 556 37,000  Level Fort Worth Center
Sat 02:58:56 PM 32.5414 -98.4139 108° East 477 549 37,000  Level Fort Worth Center
Sat 02:59:56 PM 32.4986 -98.2608 108° East 477 549 37,000  Level Fort Worth Center
Sat 03:00:56 PM 32.4536 -98.0953 108° East 477 549 37,000  Level Fort Worth Center
Sat 03:01:56 PM 32.4083 -97.9425 109° East 482 555 37,000  Level Fort Worth Center
Sat 03:02:56 PM 32.3653 -97.7872 108° East 487 560 37,000  Level Fort Worth Center
Sat 03:03:56 PM 32.3197 -97.6372 110° East 487 560 37,000  Level Fort Worth Center
Sat 03:04:56 PM 32.2781 -97.4822 108° East 487 560 37,000  Level Fort Worth Center
Sat 03:05:56 PM 32.2322 -97.3300 110° East 481 554 37,000  Level Fort Worth Center
Sat 03:06:56 PM 32.1881 -97.1778 109° East 486 559 37,000  Level Fort Worth Center
Sat 03:07:56 PM 32.1439 -97.0258 109° East 491 565 37,000  Level Fort Worth Center
Sat 03:08:56 PM 32.0994 -96.8689 108° East 486 559 37,000  Level Fort Worth Center
Sat 03:09:56 PM 32.0528 -96.7125 109° East 491 565 37,000  Level Fort Worth Center
Sat 03:10:56 PM 32.0081 -96.5583 109° East 491 565 37,000  Level Fort Worth Center
Sat 03:11:56 PM 31.9631 -96.4044 109° East 491 565 37,000  Level Fort Worth Center
Sat 03:12:56 PM 31.9158 -96.2558 110° East 491 565 37,000  Level Fort Worth Center
Sat 03:13:56 PM 31.8767 -96.1144 108° East 486 559 37,000  Level Fort Worth Center
Sat 03:14:56 PM 31.8333 -95.9658 109° East 491 565 37,000  Level Fort Worth Center
Sat 03:15:56 PM 31.7836 -95.8125 111° Southeast 486 559 37,000  Level Fort Worth Center
Sat 03:16:56 PM 31.7378 -95.6667 110° East 486 559 37,000  Level Fort Worth Center
Sat 03:17:56 PM 31.6917 -95.5114 109° East 491 565 37,000  Level Fort Worth Center
Sat 03:18:56 PM 31.6389 -95.3392 110° East 503 579 37,000  Level Fort Worth Center
Sat 03:19:56 PM 31.5969 -95.2061 110° East 492 566 37,000  Level Fort Worth Center
Sat 03:22:00 PM 31.4994 -94.8869 110° East 501 577 37,000  Level Houston Center
Sat 03:23:02 PM 31.4517 -94.7319 110° East 499 574 37,000  Level Houston Center
Sat 03:24:03 PM 31.4019 -94.5756 110° East 501 577 37,000  Level Houston Center
Sat 03:25:05 PM 31.3531 -94.4192 110° East 503 579 37,000  Level Houston Center
Sat 03:26:07 PM 31.3033 -94.2650 111° Southeast 504 580 37,000  Level Houston Center
Sat 03:27:08 PM 31.2433 -94.0800 111° Southeast 505 581 37,000  Level Houston Center
Sat 03:28:10 PM 31.1922 -93.9258 111° Southeast 507 583 37,000  Level Houston Center
Sat 03:29:12 PM 31.1419 -93.7739 111° Southeast 508 585 37,000  Level Houston Center
Sat 03:30:13 PM 31.0925 -93.6156 110° East 512 589 37,000  Level Houston Center
Sat 03:31:15 PM 31.0422 -93.4586 110° East 514 592 37,000  Level Houston Center
Sat 03:32:17 PM 30.9906 -93.3061 112° Southeast 511 588 37,000  Level Houston Center
Sat 03:33:19 PM 30.9397 -93.1514 111° Southeast 508 585 37,000  Level Houston Center
Sat 03:34:20 PM 30.8878 -92.9953 111° Southeast 512 589 37,000  Level Houston Center
Sat 03:35:22 PM 30.8281 -92.8167 111° Southeast 513 590 37,000  Level Houston Center
Sat 03:37:25 PM 30.7258 -92.5094 111° Southeast 514 592 37,000  Level Houston Center
Sat 03:38:27 PM 30.6736 -92.3561 112° Southeast 515 593 37,000  Level Houston Center
Sat 03:39:29 PM 30.6214 -92.2011 111° Southeast 519 597 37,000  Level Houston Center
Sat 03:40:31 PM 30.5597 -92.0161 111° Southeast 516 594 37,000  Level Houston Center
Sat 03:41:32 PM 30.5061 -91.8628 112° Southeast 517 595 37,000  Level Houston Center
Sat 03:42:34 PM 30.4575 -91.7217 112° Southeast 516 594 37,000  Level Houston Center
Sat 03:43:36 PM 30.4056 -91.5672 111° Southeast 516 594 37,000  Level Houston Center
Sat 03:44:37 PM 30.3422 -91.3814 112° Southeast 517 595 37,000  Level Houston Center
Sat 03:45:39 PM 30.2869 -91.2283 113° Southeast 516 594 37,000  Level Houston Center
Sat 03:46:41 PM 30.2347 -91.0756 112° Southeast 515 593 37,000  Level Houston Center
Sat 03:47:43 PM 30.1811 -90.9214 112° Southeast 516 594 37,000  Level Houston Center
Sat 03:48:44 PM 30.1256 -90.7692 113° Southeast 517 595 37,000  Level Houston Center
Sat 03:49:46 PM 30.0697 -90.6158 113° Southeast 519 597 37,000  Level Houston Center
Sat 03:50:48 PM 30.0050 -90.4308 112° Southeast 521 600 37,000  Level Houston Center
Sat 03:51:50 PM 29.9494 -90.2772 113° Southeast 523 602 37,000  Level Houston Center
Sat 03:52:51 PM 29.9003 -90.1186 110° East 529 609 37,000  Level Houston Center
Sat 03:53:53 PM 29.8486 -89.9636 111° Southeast 526 605 37,000  Level Houston Center
Sat 03:54:55 PM 29.7967 -89.8064 111° Southeast 528 608 37,000  Level Houston Center
Sat 03:55:57 PM 29.7439 -89.6497 111° Southeast 529 609 37,000  Level Houston Center
Sat 03:56:58 PM 29.6808 -89.4606 111° Southeast 531 611 37,000  Level Houston Center
Sat 03:58:00 PM 29.6281 -89.3025 111° Southeast 535 616 37,000  Level Houston Center
Sat 03:59:02 PM 29.5761 -89.1464 111° Southeast 529 609 37,000  Level Houston Center
Sat 04:00:04 PM 29.5222 -88.9900 112° Southeast 529 609 37,000  Level Houston Center
Sat 04:01:05 PM 29.4694 -88.8328 111° Southeast 534 615 37,000  Level Houston Center
Sat 04:03:09 PM 29.3514 -88.4869 111° Southeast 531 611 37,000 -258 Level Houston Center
Sat 04:04:11 PM 29.2964 -88.3303 112° Southeast 533 613 36,200 -878 Descending Houston Center
Sat 04:05:12 PM 29.2417 -88.1747 112° Southeast 530 610 35,200 -585 Descending Houston Center
Sat 04:06:14 PM 29.1894 -88.0197 111° Southeast 530 610 35,000 -97 Descending Houston Center
Sat 04:07:16 PM 29.1358 -87.8664 112° Southeast 522 601 35,000  Level Houston Center
Sat 04:08:18 PM 29.0928 -87.7094 107° East 523 602 35,000  Level Houston Center
Sat 04:09:19 PM 29.0469 -87.5178 105° East 524 603 35,000  Level Houston Center
Sat 04:10:27 PM 29.0094 -87.3533 105° East 512 589 35,000  Level Jacksonville Center
Sat 04:11:27 PM 28.9689 -87.1950 106° East 515 593 35,000  Level Jacksonville Center
Sat 04:12:27 PM 28.9325 -87.0344 104° East 521 600 35,000  Level Jacksonville Center
Sat 04:13:27 PM 28.8914 -86.8764 107° East 527 606 35,000  Level Jacksonville Center
Sat 04:14:27 PM 28.8506 -86.7158 106° East 522 601 35,000  Level Jacksonville Center
Sat 04:15:27 PM 28.8114 -86.5581 106° East 517 595 35,000  Level Jacksonville Center
Sat 04:16:27 PM 28.7739 -86.4003 105° East 517 595 35,000  Level Jacksonville Center
Sat 04:17:27 PM 28.7322 -86.2403 107° East 517 595 35,000  Level Jacksonville Center
Sat 04:18:27 PM 28.6925 -86.0828 106° East 517 595 35,000  Level Jacksonville Center
Sat 04:19:27 PM 28.6503 -85.9278 107° East 522 601 35,000  Level Jacksonville Center
Sat 04:20:27 PM 28.6122 -85.7706 105° East 516 594 35,000 -652 Level Jacksonville Center
Sat 04:22:31 PM 28.5239 -85.4286 106° East 506 582 33,000 -652 Descending Miami Center
Sat 04:23:31 PM 28.4869 -85.2797 106° East 506 582 33,000  Level Miami Center
Sat 04:24:31 PM 28.4458 -85.1256 107° East 506 582 33,000 -800 Level Miami Center
Sat 04:25:31 PM 28.4083 -84.9817 106° East 506 582 31,400 -1,800 Descending Miami Center
Sat 04:26:31 PM 28.3686 -84.8328 107° East 494 568 29,400 -2,000 Descending Miami Center
Sat 04:27:31 PM 28.3306 -84.6911 107° East 482 555 27,400 -1,950 Descending Miami Center
Sat 04:28:31 PM 28.2944 -84.5519 106° East 471 542 25,500 -1,200 Descending Miami Center
Sat 04:29:31 PM 28.2617 -84.4250 106° East 446 513 25,000 -250 Descending Miami Center
Sat 04:30:31 PM 28.2247 -84.2931 108° East 430 495 25,000 -100 Level Miami Center
Sat 04:31:31 PM 28.1833 -84.1681 111° Southeast 430 495 24,800 -850 Descending Miami Center
Sat 04:32:31 PM 28.1539 -84.0461 105° East 424 488 23,300 -1,650 Descending Miami Center
Sat 04:33:31 PM 28.1203 -83.9264 108° East 405 466 21,500 -1,700 Descending Miami Center
Sat 04:34:31 PM 28.0883 -83.8139 108° East 394 453 19,900 -1,650 Descending Miami Center
Sat 04:35:31 PM 28.0583 -83.6992 106° East 382 440 18,200 -1,650 Descending Miami Center
Sat 04:36:31 PM 28.0281 -83.5917 108° East 371 427 16,600 -1,650 Descending Miami Center
Sat 04:37:31 PM 27.9997 -83.4844 107° East 371 427 14,900 -1,650 Descending Miami Center
Sat 04:38:31 PM 27.9711 -83.3792 107° East 366 421 13,300 -1,600 Descending Miami Center
Sat 04:39:31 PM 27.9422 -83.2789 108° East 348 400 11,700 -1,550 Descending Miami Center
Sat 04:40:31 PM 27.9153 -83.1789 107° East 343 395 10,200 -850 Descending Miami Center
Sat 04:41:31 PM 27.9444 -83.0842 71° East 313 360 10,000 -100 Descending Miami Center
Sat 04:42:31 PM 27.9861 -82.9925 63° Northeast 302 348 10,000  Level Miami Center
Sat 04:43:31 PM 28.0294 -82.9008 62° Northeast 313 360 10,000 -202 Level Miami Center
Sat 04:44:30 PM 28.0667 -82.8167 63° Northeast 320 368 9,600 -958 Descending Tampa TRACON
Sat 04:45:30 PM 28.0667 -82.7167 90° East 311 358 8,100 -1,400 Descending Tampa TRACON
Sat 04:46:30 PM 28.0833 -82.6167 79° East 296 341 6,800 -950 Descending Tampa TRACON
Sat 04:47:30 PM 28.1500 -82.6167 360° North 246 283 6,200 -900 Descending Tampa TRACON
Sat 04:48:30 PM 28.2000 -82.5667 41° Northeast 247 284 5,000 -1,289 Descending Tampa TRACON
Sat 04:49:31 PM 28.1500 -82.5167 139° Southeast 241 277 3,600 -1,476 Descending Tampa TRACON
Sat 04:50:36 PM 28.0833 -82.5333 192° South 214 246 1,900 -1,238 Descending Tampa TRACON
Sat 04:51:37 PM 28.0333 -82.5333 180° South 169 194 1,000 -885 Descending Tampa TRACON
Sat 04:53:00 PM 27.9755 -82.5332 180° South  Level Estimated
Sat 05:00:00 PM 27.9755 -82.5332 19° North  Level Estimated
Sat 05:01:00 PM 27.9755 -82.5332 19° North  Level Estimated

Login

Don't have an account? Register now (free) for customized features, flight alerts, and more!